EmailTwitter


Surface observations / Quebec / CYMX

Regions: Quebec | Canada | USA | Europe | France | UK | Elsewhere
Station
Display
Info & Location for CYMX | Help decoding METAR

Weather Conditions observed on 2018/02/23 at 02:00 UTC at MONTREAL MIRABEL, QB (CYMX)

Sky conditions: clear.

Temperature: -10.0 Celsius.

Dewpoint: -13.0 Celsius.

Relative Humidity: 79%

Winds: Calm at 0 km/h or 0 knots.

Mean Sea level Pressure: 104.12 kilopascals.

Altimeter Setting (QNH): 104.03 kilopascals or 30.72 inches of mercury.

Horizontal visibility: 25.00 statute miles or 40.00 kilometers.

Coded METAR:

CYMX 230200Z 00000KT 25SM SKC M10/M13 A3072 RMK SLP412=